Time;durP1;ratioP1;P1;durP2;ratioP2;P2;SDS_P1;SDS_P2;PMS_P1;PMS_P2;Temp;Humidity;BMP_temperature;BMP_pressure;BME280_temperature;BME280_humidity;BME280_pressure;Samples;Min_cycle;Max_cycle;Signal;HPM_P1;HPM_P2
2022/12/28 00:01:45;;;;;;;4.07;1.77;;;6.90;99.90;;;;;;5038422;28;20191;-40
2022/12/28 00:04:14;;;;;;;5.63;1.70;;;6.90;99.90;;;;;;5047678;28;20221;-37
2022/12/28 00:06:39;;;;;;;4.50;1.70;;;6.90;99.90;;;;;;5031283;28;20227;-38
2022/12/28 00:09:05;;;;;;;2.80;1.80;;;6.90;99.90;;;;;;5031178;28;20457;-37
2022/12/28 00:11:31;;;;;;;2.60;1.80;;;6.70;99.90;;;;;;5045935;28;20205;-37
2022/12/28 00:14:01;;;;;;;4.50;1.60;;;6.90;99.90;;;;;;5045916;28;20258;-37
2022/12/28 00:16:35;;;;;;;3.23;1.40;;;6.90;99.90;;;;;;5030199;28;20603;-39
2022/12/28 00:19:06;;;;;;;3.17;2.00;;;6.90;99.90;;;;;;5046979;28;20428;-34
2022/12/28 00:21:32;;;;;;;3.30;1.70;;;6.80;99.90;;;;;;5048881;28;20431;-37
2022/12/28 00:23:59;;;;;;;2.23;1.43;;;7.10;99.90;;;;;;5049765;28;20534;-39
2022/12/28 00:26:28;;;;;;;3.30;1.80;;;7.10;99.90;;;;;;5048874;28;20420;-40
2022/12/28 00:28:54;;;;;;;4.57;2.13;;;6.80;99.90;;;;;;5050035;28;20499;-35
2022/12/28 00:31:20;;;;;;;3.03;1.47;;;7.10;99.90;;;;;;5048890;28;20417;-39
2022/12/28 00:33:45;;;;;;;2.43;1.50;;;6.90;99.90;;;;;;5042063;28;20440;-36
2022/12/28 00:36:12;;;;;;;3.07;1.73;;;7.10;99.90;;;;;;5039258;28;20344;-36
2022/12/28 00:38:39;;;;;;;4.60;2.20;;;7.10;99.90;;;;;;5029842;28;20312;-40
2022/12/28 00:41:05;;;;;;;3.50;1.73;;;7.20;99.90;;;;;;5030195;28;20726;-38
2022/12/28 00:43:32;;;;;;;2.70;1.70;;;7.20;99.90;;;;;;5029148;28;20520;-35
2022/12/28 00:45:58;;;;;;;4.60;2.03;;;7.30;99.90;;;;;;5030005;28;20453;-39
2022/12/28 00:48:24;;;;;;;3.10;2.03;;;7.20;99.90;;;;;;5029548;28;20413;-38
2022/12/28 00:50:49;;;;;;;2.83;1.97;;;7.20;99.90;;;;;;5039408;28;20489;-39
2022/12/28 00:53:15;;;;;;;4.30;1.93;;;7.30;99.90;;;;;;5031363;28;20425;-34
2022/12/28 00:55:41;;;;;;;4.33;1.40;;;7.20;99.90;;;;;;5029546;28;20197;-37
2022/12/28 00:58:07;;;;;;;3.30;1.87;;;7.40;99.90;;;;;;5028315;28;20578;-34
2022/12/28 01:00:34;;;;;;;2.67;1.90;;;7.10;99.90;;;;;;5029990;28;20470;-37
2022/12/28 01:03:00;;;;;;;2.53;1.70;;;7.10;99.90;;;;;;5039896;28;20978;-36
2022/12/28 01:05:26;;;;;;;2.03;1.53;;;7.20;99.90;;;;;;5038357;28;20488;-38
2022/12/28 01:07:52;;;;;;;3.20;1.40;;;7.10;99.90;;;;;;5027598;28;20690;-37
2022/12/28 01:10:20;;;;;;;3.53;1.60;;;7.00;99.90;;;;;;5029912;28;20425;-39
2022/12/28 01:12:46;;;;;;;5.40;1.83;;;7.30;99.90;;;;;;5037837;28;21030;-37
2022/12/28 01:15:12;;;;;;;2.27;1.77;;;7.10;99.90;;;;;;5028984;28;20182;-38
2022/12/28 01:17:38;;;;;;;3.10;1.53;;;7.10;99.90;;;;;;5031407;28;22120;-37
2022/12/28 01:20:05;;;;;;;1.77;1.50;;;7.20;99.90;;;;;;5042318;28;20805;-40
2022/12/28 01:22:31;;;;;;;3.23;2.40;;;7.20;99.90;;;;;;5038831;28;20447;-39
2022/12/28 01:24:56;;;;;;;3.20;1.97;;;7.30;99.90;;;;;;5033331;28;20429;-38
2022/12/28 01:27:22;;;;;;;5.20;2.33;;;7.20;99.90;;;;;;5029828;28;20206;-39
2022/12/28 01:29:48;;;;;;;3.60;1.73;;;7.10;99.90;;;;;;5028814;28;20186;-37
2022/12/28 01:32:13;;;;;;;2.07;1.60;;;7.30;99.90;;;;;;5028995;28;20206;-39
2022/12/28 01:34:39;;;;;;;4.40;1.97;;;7.10;99.90;;;;;;5037141;28;21069;-39
2022/12/28 01:37:05;;;;;;;3.73;2.10;;;7.40;99.90;;;;;;5049140;28;20232;-35
2022/12/28 01:39:30;;;;;;;2.90;1.50;;;7.40;99.90;;;;;;5048952;28;20254;-34
2022/12/28 01:41:56;;;;;;;1.80;1.67;;;7.00;99.90;;;;;;5048768;28;20245;-34
2022/12/28 01:44:24;;;;;;;2.17;1.97;;;7.20;99.90;;;;;;5048131;28;20896;-40
2022/12/28 01:47:04;;;;;;;4.07;1.70;;;7.10;99.90;;;;;;5048291;28;20180;-35
2022/12/28 01:49:38;;;;;;;2.23;1.80;;;7.10;99.90;;;;;;5049048;28;20424;-35
2022/12/28 01:52:06;;;;;;;2.90;1.77;;;7.30;99.90;;;;;;5048373;28;20431;-36
2022/12/28 01:54:39;;;;;;;2.40;1.73;;;7.30;99.90;;;;;;5048019;28;20965;-38
2022/12/28 01:57:05;;;;;;;2.80;1.67;;;7.10;99.90;;;;;;5048992;28;20441;-36
2022/12/28 01:59:35;;;;;;;2.80;1.90;;;7.10;99.90;;;;;;5048510;28;20424;-38
2022/12/28 02:02:01;;;;;;;2.17;1.60;;;7.40;99.90;;;;;;5047799;28;20421;-38
2022/12/28 02:04:28;;;;;;;3.10;1.97;;;7.10;99.90;;;;;;5047448;28;20467;-36
2022/12/28 02:06:54;;;;;;;6.43;1.97;;;7.20;99.90;;;;;;5048538;28;20420;-39
2022/12/28 02:09:28;;;;;;;4.47;1.73;;;7.20;99.90;;;;;;5046891;28;20425;-39
2022/12/28 02:11:54;;;;;;;5.70;1.83;;;7.20;99.90;;;;;;5048369;28;20409;-37
2022/12/28 02:14:21;;;;;;;2.47;1.90;;;7.20;99.90;;;;;;5047476;28;20412;-38
2022/12/28 02:16:46;;;;;;;3.00;1.67;;;7.30;99.90;;;;;;5048210;28;20787;-39
2022/12/28 02:19:17;;;;;;;2.10;1.90;;;7.40;99.90;;;;;;5048575;28;20563;-38
2022/12/28 02:21:55;;;;;;;4.83;1.90;;;7.20;99.90;;;;;;5048046;28;20204;-35
2022/12/28 02:24:49;;;;;;;3.10;1.60;;;7.20;99.90;;;;;;5047425;28;20494;-34
2022/12/28 02:27:48;;;;;;;4.03;1.90;;;7.40;99.90;;;;;;5039047;28;20808;-41
2022/12/28 02:30:14;;;;;;;3.27;1.90;;;7.40;99.90;;;;;;5048471;28;20408;-39
2022/12/28 02:32:45;;;;;;;3.50;2.07;;;7.40;99.90;;;;;;5048009;28;20416;-33
2022/12/28 02:35:32;;;;;;;3.63;1.90;;;7.20;99.90;;;;;;5043723;28;20420;-37
2022/12/28 02:38:36;;;;;;;3.33;1.90;;;7.40;99.90;;;;;;5047563;28;20409;-36
2022/12/28 02:41:23;;;;;;;2.53;1.70;;;7.40;99.90;;;;;;5047246;28;20831;-39
2022/12/28 02:43:49;;;;;;;3.20;1.80;;;7.20;99.90;;;;;;5047042;28;20478;-41
2022/12/28 02:52:28;;;;;;;6.90;2.00;;;7.40;99.90;;;;;;5051718;28;20416;-32
2022/12/28 02:58:42;;;;;;;2.37;1.50;;;7.40;99.90;;;;;;5052145;28;20403;-39
2022/12/28 03:01:35;;;;;;;2.20;1.43;;;7.50;99.90;;;;;;5024001;28;20934;-38
2022/12/28 03:04:30;;;;;;;3.60;1.70;;;7.60;99.90;;;;;;5050786;28;20463;-40
2022/12/28 03:10:04;;;;;;;4.63;1.83;;;7.50;99.90;;;;;;5051529;28;20416;-37
2022/12/28 03:13:41;;;;;;;3.27;2.20;;;7.30;99.90;;;;;;5051643;28;20431;-38
2022/12/28 03:16:04;;;;;;;4.73;2.00;;;7.50;99.90;;;;;;5028744;28;20416;-37
2022/12/28 03:32:28;;;;;;;2.63;1.70;;;7.40;99.90;;;;;;5051530;28;20412;-37
2022/12/28 03:34:53;;;;;;;4.23;1.90;;;7.50;99.90;;;;;;5048863;28;20415;-37
2022/12/28 03:37:32;;;;;;;3.60;1.97;;;7.60;99.90;;;;;;5049217;28;20934;-36
2022/12/28 03:40:18;;;;;;;3.90;2.20;;;7.40;99.90;;;;;;5050011;28;20242;-35
2022/12/28 03:45:38;;;;;;;5.10;2.13;;;7.50;99.90;;;;;;5045942;28;20459;-39
2022/12/28 03:48:04;;;;;;;5.17;2.10;;;7.40;99.90;;;;;;5051215;28;20413;-39
2022/12/28 03:50:38;;;;;;;4.77;1.80;;;7.60;99.90;;;;;;5050764;28;20455;-34
2022/12/28 03:53:04;;;;;;;3.37;2.23;;;7.60;99.90;;;;;;5050503;28;20511;-34
2022/12/28 03:55:30;;;;;;;3.27;1.77;;;7.40;99.90;;;;;;5050478;28;20911;-32
2022/12/28 03:57:56;;;;;;;2.17;1.90;;;7.40;99.90;;;;;;5049764;28;20181;-37
2022/12/28 04:00:24;;;;;;;2.10;1.87;;;7.40;99.90;;;;;;5050825;28;20232;-38
2022/12/28 04:02:49;;;;;;;1.87;1.77;;;7.50;99.90;;;;;;5050618;28;20491;-40
2022/12/28 04:05:15;;;;;;;3.00;1.77;;;7.40;99.90;;;;;;5046427;28;20714;-38
2022/12/28 04:07:41;;;;;;;3.43;2.13;;;7.50;99.90;;;;;;5050238;28;20182;-38
2022/12/28 04:10:07;;;;;;;2.97;1.80;;;7.60;99.90;;;;;;5050906;28;20608;-40
2022/12/28 04:12:32;;;;;;;1.97;1.50;;;7.70;99.90;;;;;;5050772;28;20595;-37
2022/12/28 04:14:58;;;;;;;1.87;1.63;;;7.50;99.90;;;;;;5050023;28;20983;-35
2022/12/28 04:17:23;;;;;;;2.50;1.70;;;7.60;99.90;;;;;;5050677;28;20182;-40
2022/12/28 04:19:49;;;;;;;3.00;1.77;;;7.50;99.90;;;;;;5050338;28;20272;-36
2022/12/28 04:22:15;;;;;;;3.03;1.90;;;7.60;99.90;;;;;;5050339;28;20177;-39
2022/12/28 04:24:40;;;;;;;2.33;2.00;;;7.80;99.90;;;;;;5048045;28;20676;-34
2022/12/28 04:27:06;;;;;;;3.23;1.80;;;7.50;99.90;;;;;;5047366;28;20580;-37
2022/12/28 04:29:32;;;;;;;3.03;2.33;;;7.50;99.90;;;;;;5050342;28;20216;-40
2022/12/28 04:31:57;;;;;;;2.90;1.87;;;7.80;99.90;;;;;;5049868;28;20382;-37
2022/12/28 04:34:23;;;;;;;2.47;2.03;;;7.40;99.90;;;;;;5049867;28;20185;-35
2022/12/28 04:36:49;;;;;;;3.17;2.00;;;7.40;99.90;;;;;;5049829;28;20182;-36
2022/12/28 04:39:14;;;;;;;4.77;2.00;;;7.50;99.90;;;;;;5050028;28;20189;-37
2022/12/28 04:41:40;;;;;;;3.50;1.63;;;7.60;99.90;;;;;;5049757;28;20289;-35
2022/12/28 04:44:06;;;;;;;2.20;2.00;;;7.60;99.90;;;;;;5042222;28;20240;-39
2022/12/28 04:46:31;;;;;;;6.20;2.33;;;7.60;99.90;;;;;;5050557;28;20201;-34
2022/12/28 04:48:58;;;;;;;2.00;1.80;;;7.50;99.90;;;;;;5049474;28;20186;-38
2022/12/28 04:51:26;;;;;;;2.10;1.90;;;7.60;99.90;;;;;;5050202;28;20204;-39
2022/12/28 04:53:54;;;;;;;1.77;1.63;;;7.70;99.90;;;;;;5048825;28;20704;-33
2022/12/28 04:56:21;;;;;;;2.90;1.80;;;7.60;99.90;;;;;;5049713;28;20922;-37
2022/12/28 04:58:47;;;;;;;2.63;1.70;;;7.60;99.90;;;;;;5049441;28;20416;-38
2022/12/28 05:01:18;;;;;;;1.73;1.60;;;7.80;99.90;;;;;;5049867;28;20817;-40
2022/12/28 05:03:45;;;;;;;2.30;1.50;;;7.70;99.90;;;;;;5048967;28;20471;-36
2022/12/28 05:06:16;;;;;;;2.30;1.83;;;7.70;99.90;;;;;;5042436;28;20421;-39
2022/12/28 05:08:42;;;;;;;3.70;2.00;;;7.60;99.90;;;;;;5048939;28;20423;-40
2022/12/28 05:11:15;;;;;;;2.83;1.83;;;7.50;99.90;;;;;;5048844;28;20570;-40
2022/12/28 05:13:41;;;;;;;3.67;2.43;;;7.60;99.90;;;;;;5029057;28;20941;-39
2022/12/28 05:16:10;;;;;;;2.50;2.10;;;7.60;99.90;;;;;;5029247;28;21021;-35
2022/12/28 05:18:37;;;;;;;2.30;2.07;;;7.60;99.90;;;;;;5029631;28;20854;-37
2022/12/28 05:21:15;;;;;;;3.63;2.10;;;7.60;99.90;;;;;;5029372;28;20413;-40
2022/12/28 05:23:41;;;;;;;2.07;1.93;;;7.70;99.90;;;;;;5028676;28;20518;-35
2022/12/28 05:26:11;;;;;;;2.10;1.90;;;7.60;99.90;;;;;;5028470;28;20409;-37
2022/12/28 05:28:37;;;;;;;2.90;2.00;;;7.90;99.90;;;;;;5037623;28;20428;-34
2022/12/28 05:31:08;;;;;;;2.73;1.97;;;7.80;99.90;;;;;;5048973;28;20448;-35
2022/12/28 05:33:35;;;;;;;3.10;2.00;;;7.70;99.90;;;;;;5048204;28;20423;-38
2022/12/28 05:36:08;;;;;;;2.63;2.30;;;7.70;99.90;;;;;;5048788;28;20423;-37
2022/12/28 05:38:34;;;;;;;2.93;2.60;;;7.80;99.90;;;;;;5048958;28;20515;-39
2022/12/28 05:41:08;;;;;;;3.90;2.20;;;7.90;99.90;;;;;;5048993;28;20417;-37
2022/12/28 05:43:34;;;;;;;3.17;1.97;;;7.70;99.90;;;;;;5048469;28;20543;-38
2022/12/28 05:46:05;;;;;;;2.70;2.30;;;7.70;99.90;;;;;;5047560;28;20574;-39
2022/12/28 05:48:32;;;;;;;2.50;1.63;;;7.70;99.90;;;;;;5049084;28;20417;-34
2022/12/28 05:51:03;;;;;;;2.80;2.00;;;7.90;99.90;;;;;;5048610;28;20965;-38
2022/12/28 05:53:30;;;;;;;2.43;2.20;;;7.70;99.90;;;;;;5046785;28;20419;-36
2022/12/28 05:56:00;;;;;;;2.80;2.20;;;7.70;99.90;;;;;;5048519;28;20425;-36
2022/12/28 05:58:26;;;;;;;4.67;2.77;;;7.70;99.90;;;;;;5048734;28;20429;-34
2022/12/28 06:00:51;;;;;;;2.43;2.10;;;7.70;99.90;;;;;;5048130;28;20786;-37
2022/12/28 06:03:17;;;;;;;3.10;1.87;;;7.80;99.90;;;;;;5047904;28;20267;-38
2022/12/28 06:05:43;;;;;;;2.60;2.00;;;8.00;99.90;;;;;;5047426;28;20273;-38
2022/12/28 06:08:08;;;;;;;1.80;1.70;;;7.70;99.90;;;;;;5047164;28;20178;-40
2022/12/28 06:10:35;;;;;;;3.30;2.07;;;7.70;99.90;;;;;;5048643;28;20669;-40
2022/12/28 06:13:01;;;;;;;3.90;2.37;;;8.00;99.90;;;;;;5047587;28;20181;-38
2022/12/28 06:15:26;;;;;;;3.50;2.13;;;7.90;99.90;;;;;;5048156;28;20419;-40
2022/12/28 06:17:52;;;;;;;3.37;2.23;;;7.80;99.90;;;;;;5045650;28;20260;-37
2022/12/28 06:20:18;;;;;;;2.00;1.90;;;7.80;99.90;;;;;;5047659;28;20243;-37
2022/12/28 06:22:43;;;;;;;2.30;2.10;;;7.90;99.90;;;;;;5047973;28;20424;-37
2022/12/28 06:25:09;;;;;;;3.47;2.20;;;8.10;99.90;;;;;;5042750;28;20181;-40
2022/12/28 06:27:35;;;;;;;2.37;1.80;;;7.90;99.90;;;;;;5048178;28;20186;-38
2022/12/28 06:30:01;;;;;;;2.47;2.27;;;8.00;99.90;;;;;;5047751;28;20208;-39
2022/12/28 06:32:26;;;;;;;2.60;2.10;;;7.90;99.90;;;;;;5047301;28;20178;-37
2022/12/28 06:34:52;;;;;;;2.13;1.80;;;7.90;99.90;;;;;;5047208;28;20181;-37
2022/12/28 06:37:18;;;;;;;4.73;2.60;;;7.90;99.90;;;;;;5048189;28;20193;-40
2022/12/28 06:39:43;;;;;;;3.23;2.10;;;7.90;99.90;;;;;;5048302;28;20208;-37
2022/12/28 06:42:09;;;;;;;3.67;2.17;;;7.90;99.90;;;;;;5047906;28;20676;-36
2022/12/28 06:44:34;;;;;;;2.67;2.17;;;7.90;99.90;;;;;;5047289;28;20197;-35
2022/12/28 06:47:00;;;;;;;3.40;2.20;;;7.90;99.90;;;;;;5047910;28;20259;-37
2022/12/28 06:49:26;;;;;;;2.33;2.10;;;8.10;99.90;;;;;;5048150;28;20185;-36
2022/12/28 06:51:51;;;;;;;2.87;1.90;;;7.90;99.90;;;;;;5045584;28;20536;-41
2022/12/28 06:54:17;;;;;;;3.47;2.40;;;7.90;99.90;;;;;;5042980;28;20854;-39
2022/12/28 06:56:42;;;;;;;4.00;2.47;;;7.90;99.90;;;;;;5048616;28;20552;-38
2022/12/28 06:59:08;;;;;;;3.23;1.70;;;7.80;99.90;;;;;;5047853;28;20196;-35
2022/12/28 07:01:39;;;;;;;4.30;2.23;;;8.00;99.90;;;;;;5046830;28;20202;-34
2022/12/28 07:04:06;;;;;;;4.40;2.50;;;8.00;99.90;;;;;;5044717;28;20229;-36
2022/12/28 07:06:39;;;;;;;2.50;2.03;;;8.00;99.90;;;;;;5047496;28;20416;-39
2022/12/28 07:09:07;;;;;;;3.37;2.60;;;8.30;99.90;;;;;;5047602;28;20499;-38
2022/12/28 07:11:34;;;;;;;2.43;2.00;;;7.90;99.90;;;;;;5046312;28;20417;-40
2022/12/28 07:13:59;;;;;;;2.53;2.10;;;8.00;99.90;;;;;;5047299;28;20495;-37
2022/12/28 07:16:27;;;;;;;4.53;2.03;;;7.90;99.90;;;;;;5047654;28;20520;-35
2022/12/28 07:18:53;;;;;;;3.50;2.33;;;8.00;99.90;;;;;;5048134;28;20209;-38
2022/12/28 07:21:22;;;;;;;2.47;2.20;;;8.20;99.90;;;;;;5046055;28;20408;-39
2022/12/28 07:23:49;;;;;;;4.17;2.17;;;8.10;99.90;;;;;;5043104;28;20452;-40
2022/12/28 07:26:19;;;;;;;3.03;2.00;;;8.00;99.90;;;;;;5041182;28;20828;-40
2022/12/28 07:28:46;;;;;;;3.40;1.83;;;7.90;99.90;;;;;;5038691;28;20447;-40
2022/12/28 07:31:18;;;;;;;2.50;1.70;;;7.90;99.90;;;;;;5039258;28;20410;-40
2022/12/28 07:33:44;;;;;;;4.23;2.20;;;8.00;99.90;;;;;;5035257;28;20443;-38
2022/12/28 07:36:15;;;;;;;4.33;2.40;;;7.90;99.90;;;;;;5039916;28;20787;-39
2022/12/28 07:38:42;;;;;;;3.03;2.27;;;8.10;99.90;;;;;;5039951;28;20531;-37
2022/12/28 07:41:19;;;;;;;2.50;2.10;;;8.10;99.90;;;;;;5046268;28;20824;-35
2022/12/28 07:43:45;;;;;;;2.60;2.30;;;8.00;99.90;;;;;;5047819;28;20455;-39
2022/12/28 07:46:14;;;;;;;2.57;2.23;;;8.10;99.90;;;;;;5049613;28;20405;-39
2022/12/28 07:48:40;;;;;;;2.97;2.30;;;8.10;99.90;;;;;;5048958;28;20452;-39
2022/12/28 07:51:09;;;;;;;3.33;2.80;;;8.30;99.90;;;;;;5050252;28;20412;-40
2022/12/28 07:53:39;;;;;;;2.00;1.63;;;8.40;99.90;;;;;;5046334;28;20427;-37
2022/12/28 07:56:05;;;;;;;5.10;2.70;;;8.00;99.90;;;;;;5048986;28;20416;-39
2022/12/28 07:58:31;;;;;;;3.33;1.90;;;8.00;99.90;;;;;;5049510;28;20416;-39
2022/12/28 08:01:12;;;;;;;4.10;2.17;;;8.10;99.90;;;;;;5049234;28;20982;-37
2022/12/28 08:03:38;;;;;;;2.47;2.27;;;8.10;99.90;;;;;;5047589;28;20629;-39
2022/12/28 08:06:13;;;;;;;4.07;2.67;;;8.10;99.90;;;;;;5048170;28;20456;-41
2022/12/28 08:08:41;;;;;;;3.20;2.80;;;8.00;99.90;;;;;;5047606;28;20475;-38
2022/12/28 08:11:11;;;;;;;2.37;2.17;;;8.10;99.90;;;;;;5049287;28;20821;-36
2022/12/28 08:13:42;;;;;;;2.90;2.00;;;8.50;99.90;;;;;;5049491;28;20788;-38
2022/12/28 08:16:10;;;;;;;2.93;2.00;;;8.20;99.90;;;;;;5036865;28;20799;-37
2022/12/28 08:18:37;;;;;;;6.37;2.80;;;8.20;99.90;;;;;;5030342;28;20490;-40
2022/12/28 08:21:05;;;;;;;2.17;2.00;;;8.20;99.90;;;;;;5030663;28;20823;-38
2022/12/28 08:23:31;;;;;;;4.73;2.60;;;8.20;99.90;;;;;;5033087;28;20460;-39
2022/12/28 08:26:12;;;;;;;4.70;2.47;;;8.30;99.90;;;;;;5049562;28;20805;-37
2022/12/28 08:28:39;;;;;;;3.10;2.80;;;8.20;99.90;;;;;;5046144;28;20432;-40
2022/12/28 08:31:11;;;;;;;4.63;2.67;;;8.20;99.90;;;;;;5051103;28;21146;-40
2022/12/28 08:33:37;;;;;;;6.87;3.10;;;8.40;99.90;;;;;;5049653;28;20780;-37
2022/12/28 08:36:04;;;;;;;3.20;2.90;;;8.50;99.90;;;;;;5046201;28;20424;-39
2022/12/28 08:38:30;;;;;;;6.37;3.17;;;8.50;99.90;;;;;;5030240;28;20436;-37
2022/12/28 08:40:57;;;;;;;3.53;2.20;;;8.30;99.90;;;;;;5030448;28;20418;-37
2022/12/28 08:43:23;;;;;;;3.40;2.50;;;8.40;99.90;;;;;;5028643;28;20459;-37
2022/12/28 08:46:11;;;;;;;3.00;2.70;;;8.40;99.90;;;;;;5042508;28;20417;-39
2022/12/28 08:48:37;;;;;;;2.53;2.33;;;8.50;99.90;;;;;;5050044;28;20181;-36
2022/12/28 08:51:15;;;;;;;3.07;2.23;;;8.40;99.90;;;;;;5048246;28;20780;-41
2022/12/28 08:53:41;;;;;;;3.40;2.20;;;8.40;99.90;;;;;;5049361;28;20530;-38
2022/12/28 08:56:12;;;;;;;2.47;1.97;;;8.40;99.90;;;;;;5049797;28;20960;-40
2022/12/28 08:58:39;;;;;;;2.40;2.20;;;8.40;99.90;;;;;;5049945;28;20419;-39
2022/12/28 09:01:20;;;;;;;5.37;2.30;;;8.50;99.90;;;;;;5050058;28;20419;-39
2022/12/28 09:03:48;;;;;;;2.50;1.80;;;8.50;99.90;;;;;;5048652;28;20509;-39
2022/12/28 09:06:16;;;;;;;2.07;1.90;;;8.40;99.90;;;;;;5049452;28;20799;-33
2022/12/28 09:08:42;;;;;;;4.20;2.00;;;8.40;99.90;;;;;;5049346;28;20416;-38
2022/12/28 09:11:12;;;;;;;1.80;1.70;;;8.70;99.90;;;;;;5049685;28;20414;-36
2022/12/28 09:13:39;;;;;;;3.33;1.67;;;8.50;99.90;;;;;;5028830;28;20447;-38
2022/12/28 09:16:10;;;;;;;2.30;1.73;;;8.40;99.90;;;;;;5029481;28;20409;-40
2022/12/28 09:18:37;;;;;;;2.10;1.77;;;8.60;99.90;;;;;;5029492;28;20405;-35
2022/12/28 09:21:09;;;;;;;2.63;1.67;;;8.50;99.90;;;;;;5029168;28;20504;-39
2022/12/28 09:23:35;;;;;;;2.40;2.00;;;8.50;99.90;;;;;;5029000;28;20508;-40
2022/12/28 09:26:12;;;;;;;1.73;1.57;;;8.70;99.90;;;;;;5028293;28;20497;-41
2022/12/28 09:28:38;;;;;;;4.87;1.30;;;8.60;99.90;;;;;;5029435;28;20769;-37
2022/12/28 09:31:05;;;;;;;3.73;1.50;;;8.60;99.90;;;;;;5029293;28;20779;-40
2022/12/28 09:36:16;;;;;;;1.97;1.77;;;8.60;99.90;;;;;;5029072;28;20527;-41
2022/12/28 09:38:42;;;;;;;2.53;1.37;;;8.70;99.90;;;;;;5029200;28;20504;-37
2022/12/28 09:41:21;;;;;;;1.83;1.10;;;8.60;99.90;;;;;;5029318;28;20187;-38
2022/12/28 09:43:52;;;;;;;3.63;1.63;;;8.60;99.90;;;;;;5028505;28;20454;-40
2022/12/28 09:46:20;;;;;;;1.50;1.40;;;8.60;99.90;;;;;;5029429;28;20787;-39
2022/12/28 09:48:52;;;;;;;1.70;1.40;;;8.70;99.90;;;;;;5028516;28;20417;-33
2022/12/28 09:51:20;;;;;;;3.00;1.77;;;8.90;99.90;;;;;;5042595;28;20759;-41
2022/12/28 09:53:45;;;;;;;2.70;1.50;;;8.70;99.90;;;;;;5047689;28;20470;-35
2022/12/28 09:56:28;;;;;;;1.90;1.70;;;8.90;99.90;;;;;;5048491;28;20425;-38
2022/12/28 09:58:54;;;;;;;2.03;1.50;;;9.00;99.90;;;;;;5048479;28;20536;-40
2022/12/28 10:01:21;;;;;;;1.70;1.40;;;8.70;99.90;;;;;;5048961;28;20420;-40
2022/12/28 10:03:47;;;;;;;1.40;1.30;;;8.80;99.90;;;;;;5047724;28;20880;-39
2022/12/28 10:06:15;;;;;;;1.97;1.40;;;8.90;99.90;;;;;;5048534;28;20405;-37
2022/12/28 10:08:47;;;;;;;1.73;1.17;;;8.60;99.90;;;;;;5048425;28;20487;-40
2022/12/28 10:11:19;;;;;;;1.53;1.43;;;8.90;99.90;;;;;;5048290;28;20899;-39
2022/12/28 10:13:47;;;;;;;2.20;1.60;;;8.90;99.90;;;;;;5047726;28;20931;-39
2022/12/28 10:16:18;;;;;;;1.60;1.40;;;8.90;99.90;;;;;;5048187;28;20427;-40
2022/12/28 10:18:45;;;;;;;1.63;1.30;;;8.90;99.90;;;;;;5046930;28;20790;-35
2022/12/28 10:21:12;;;;;;;5.70;1.40;;;8.90;99.90;;;;;;5047939;28;20458;-36
2022/12/28 10:23:40;;;;;;;1.67;1.43;;;8.90;99.90;;;;;;5047534;28;20550;-38
2022/12/28 10:26:09;;;;;;;2.17;1.73;;;8.90;99.90;;;;;;5047620;28;20416;-40
2022/12/28 10:28:46;;;;;;;1.20;1.10;;;9.10;99.90;;;;;;5047858;28;20728;-39
2022/12/28 10:31:11;;;;;;;3.07;1.33;;;8.90;99.90;;;;;;5048499;28;20510;-37
2022/12/28 10:33:50;;;;;;;1.50;1.20;;;9.00;99.90;;;;;;5047336;28;20478;-37
2022/12/28 10:36:17;;;;;;;1.90;1.37;;;9.00;99.90;;;;;;5048530;28;20463;-37
2022/12/28 10:38:49;;;;;;;2.37;1.10;;;9.20;99.90;;;;;;5047907;28;20412;-38
2022/12/28 10:41:17;;;;;;;5.30;1.33;;;9.10;99.90;;;;;;5048285;28;20416;-37
2022/12/28 10:43:51;;;;;;;1.10;0.93;;;9.10;99.90;;;;;;5047253;28;20448;-38
2022/12/28 10:46:23;;;;;;;1.50;1.00;;;9.10;99.90;;;;;;5047985;28;20751;-37
2022/12/28 10:48:57;;;;;;;2.00;1.43;;;9.10;99.90;;;;;;5048194;28;20416;-37
2022/12/28 10:51:25;;;;;;;2.47;1.30;;;9.20;99.90;;;;;;5047632;28;20499;-37
2022/12/28 10:53:56;;;;;;;1.33;1.23;;;9.10;99.90;;;;;;5047428;28;20474;-37
2022/12/28 10:56:27;;;;;;;1.57;1.30;;;9.20;99.90;;;;;;5048059;28;20412;-38
2022/12/28 10:59:14;;;;;;;1.50;1.40;;;9.30;99.90;;;;;;5047854;28;20420;-37
2022/12/28 11:01:41;;;;;;;1.50;1.40;;;9.10;99.90;;;;;;5047349;28;20425;-37
2022/12/28 11:04:27;;;;;;;4.20;1.37;;;9.10;99.90;;;;;;5047168;28;20865;-33
2022/12/28 11:07:00;;;;;;;2.03;1.17;;;9.10;99.90;;;;;;5050189;28;20432;-38
2022/12/28 11:09:28;;;;;;;2.37;1.30;;;9.10;99.90;;;;;;5051866;28;20420;-37
2022/12/28 11:12:14;;;;;;;2.23;1.50;;;9.10;99.90;;;;;;5051683;28;20506;-36
2022/12/28 11:14:40;;;;;;;3.17;1.40;;;9.10;99.90;;;;;;5051340;28;20420;-41
2022/12/28 11:17:15;;;;;;;1.70;1.10;;;9.20;99.90;;;;;;5051677;28;20423;-35
2022/12/28 11:19:41;;;;;;;1.93;1.53;;;9.30;99.90;;;;;;5049902;28;20242;-38
2022/12/28 11:22:11;;;;;;;1.73;1.20;;;9.20;99.90;;;;;;5051909;28;20455;-39
2022/12/28 11:24:39;;;;;;;3.30;1.37;;;9.20;99.90;;;;;;5050203;28;20802;-36
2022/12/28 11:27:05;;;;;;;1.30;1.20;;;9.20;99.90;;;;;;5051860;28;20535;-40
2022/12/28 11:29:31;;;;;;;2.13;1.30;;;9.30;99.90;;;;;;5051250;28;20503;-36
2022/12/28 11:32:16;;;;;;;2.60;1.30;;;9.30;99.90;;;;;;5051366;28;20513;-37
2022/12/28 11:34:42;;;;;;;1.17;1.00;;;9.20;99.90;;;;;;5050600;28;20416;-40
2022/12/28 11:37:13;;;;;;;1.40;1.30;;;9.20;99.90;;;;;;5051463;28;20418;-37
2022/12/28 11:39:47;;;;;;;1.57;1.10;;;9.20;99.90;;;;;;5051532;28;20188;-36
2022/12/28 11:42:31;;;;;;;1.30;1.07;;;9.30;99.90;;;;;;5050870;28;20446;-40
2022/12/28 11:44:59;;;;;;;1.17;1.07;;;9.40;99.90;;;;;;5050840;28;20554;-39
2022/12/28 11:47:32;;;;;;;1.60;1.20;;;9.30;99.90;;;;;;5050866;28;20412;-35
2022/12/28 11:50:35;;;;;;;2.10;1.73;;;9.30;99.90;;;;;;5051320;28;20437;-37
2022/12/28 11:53:03;;;;;;;2.40;1.17;;;9.30;99.90;;;;;;5049988;28;20441;-37
2022/12/28 11:55:57;;;;;;;2.50;1.37;;;9.30;99.90;;;;;;5051357;28;20419;-40
2022/12/28 11:58:29;;;;;;;1.73;1.63;;;9.30;99.90;;;;;;5050909;28;20409;-34
2022/12/28 12:00:55;;;;;;;1.47;1.23;;;9.40;99.90;;;;;;5051411;28;20444;-36
2022/12/28 12:03:56;;;;;;;2.43;1.53;;;9.30;99.90;;;;;;5049523;28;20521;-34
2022/12/28 12:06:52;;;;;;;1.50;1.40;;;9.30;99.90;;;;;;5050915;28;20600;-38
2022/12/28 12:09:20;;;;;;;1.50;1.20;;;9.20;99.90;;;;;;5045328;28;21393;-41
2022/12/28 12:12:00;;;;;;;1.40;1.30;;;9.30;99.90;;;;;;5050752;28;20996;-39
2022/12/28 12:14:31;;;;;;;1.60;1.50;;;9.20;99.90;;;;;;5049783;28;20784;-32
2022/12/28 12:17:06;;;;;;;3.17;1.63;;;9.30;99.90;;;;;;5050005;28;20782;-39
2022/12/28 12:19:35;;;;;;;1.90;1.53;;;9.10;99.90;;;;;;5050445;28;20408;-39
2022/12/28 12:22:21;;;;;;;2.00;1.50;;;9.20;99.90;;;;;;5050245;28;20511;-37
2022/12/28 12:24:56;;;;;;;2.43;1.20;;;9.20;99.90;;;;;;5048793;28;20542;-40
2022/12/28 12:27:46;;;;;;;1.70;1.30;;;9.30;99.90;;;;;;5050155;28;20510;-37
2022/12/28 12:30:17;;;;;;;1.87;1.40;;;9.20;99.90;;;;;;5050249;28;20466;-34
2022/12/28 12:32:51;;;;;;;2.90;1.70;;;9.20;99.90;;;;;;5050022;28;20415;-38
2022/12/28 12:35:20;;;;;;;2.40;1.67;;;9.20;99.90;;;;;;5049836;28;20438;-40
2022/12/28 12:38:29;;;;;;;3.23;1.83;;;9.20;99.90;;;;;;5050001;28;20515;-39
2022/12/28 12:41:11;;;;;;;2.40;1.43;;;9.20;99.90;;;;;;5049392;28;20460;-38
2022/12/28 12:44:13;;;;;;;2.00;1.67;;;9.20;99.90;;;;;;5049112;28;20456;-36
2022/12/28 12:47:00;;;;;;;2.90;1.67;;;9.20;99.90;;;;;;5049928;28;20794;-39
2022/12/28 12:50:10;;;;;;;2.20;1.53;;;9.20;99.90;;;;;;5049800;28;20491;-39
2022/12/28 12:53:10;;;;;;;2.10;1.43;;;9.20;99.90;;;;;;4987581;28;20465;-38
2022/12/28 12:55:39;;;;;;;1.67;1.30;;;9.10;99.90;;;;;;5047280;28;20421;-38
2022/12/28 12:58:16;;;;;;;3.37;1.40;;;9.20;99.90;;;;;;5043544;28;20463;-36
2022/12/28 13:00:49;;;;;;;3.20;1.50;;;9.30;99.90;;;;;;5049401;28;20416;-38
2022/12/28 13:03:30;;;;;;;2.20;1.43;;;9.30;99.90;;;;;;5049581;28;20909;-37
2022/12/28 13:05:57;;;;;;;2.80;1.50;;;9.30;99.90;;;;;;5043963;28;20508;-37
2022/12/28 13:08:30;;;;;;;2.27;1.27;;;9.20;99.90;;;;;;5050048;28;20412;-35
2022/12/28 13:10:55;;;;;;;2.13;1.30;;;9.40;99.90;;;;;;5049303;28;20410;-34
2022/12/28 13:13:42;;;;;;;1.50;1.13;;;9.20;99.90;;;;;;5048827;28;20427;-39
2022/12/28 13:16:15;;;;;;;3.30;2.53;;;9.30;99.90;;;;;;5049638;28;20284;-37
2022/12/28 13:18:56;;;;;;;3.00;2.07;;;9.20;99.90;;;;;;5049305;28;20485;-37
2022/12/28 13:21:23;;;;;;;2.83;1.97;;;9.20;99.90;;;;;;5049507;28;20567;-39
2022/12/28 13:23:49;;;;;;;3.83;1.80;;;9.30;99.90;;;;;;5048391;28;20444;-34
2022/12/28 13:26:16;;;;;;;3.83;1.90;;;9.20;99.90;;;;;;5048540;28;20420;-38
2022/12/28 13:28:56;;;;;;;1.77;1.67;;;9.30;99.90;;;;;;5048579;28;20440;-39
2022/12/28 13:31:30;;;;;;;3.43;1.60;;;9.20;99.90;;;;;;5049440;28;20459;-36
2022/12/28 13:34:02;;;;;;;2.70;1.60;;;9.20;99.90;;;;;;5047482;28;20867;-36
2022/12/28 13:36:28;;;;;;;3.97;1.93;;;9.20;99.90;;;;;;5048017;28;20973;-39
2022/12/28 13:39:13;;;;;;;7.33;2.00;;;9.30;99.90;;;;;;5048271;28;20436;-38
2022/12/28 13:42:12;;;;;;;6.60;2.37;;;9.30;99.90;;;;;;5047700;28;20515;-35
2022/12/28 13:44:43;;;;;;;2.63;2.40;;;9.30;99.90;;;;;;5047892;28;20490;-41
2022/12/28 13:47:27;;;;;;;1.33;0.90;;;9.20;99.90;;;;;;5028922;28;20417;-39
2022/12/28 13:49:58;;;;;;;1.70;1.20;;;9.20;99.90;;;;;;5029532;28;20796;-35